Time;durP1;ratioP1;P1;durP2;ratioP2;P2;SDS_P1;SDS_P2;PMS_P1;PMS_P2;Temp;Humidity;BMP_temperature;BMP_pressure;BME280_temperature;BME280_humidity;BME280_pressure;Samples;Min_cycle;Max_cycle;Signal;HPM_P1;HPM_P2
2021/09/26 00:00:08;;;;;;;10.10;8.40;;;15.30;88.40;;;;;;5047825;28;20056;-76
2021/09/26 00:02:40;;;;;;;12.45;8.25;;;15.30;88.50;;;;;;5051214;28;20056;-76
2021/09/26 00:05:10;;;;;;;13.95;9.00;;;15.40;88.40;;;;;;5034739;28;20042;-76
2021/09/26 00:07:39;;;;;;;12.25;8.80;;;15.40;88.50;;;;;;5034854;28;20046;-76
2021/09/26 00:10:09;;;;;;;12.85;8.18;;;15.40;88.50;;;;;;5033507;28;20434;-76
2021/09/26 00:12:37;;;;;;;13.23;7.70;;;15.50;88.60;;;;;;5034962;28;20432;-76
2021/09/26 00:15:09;;;;;;;11.68;8.55;;;15.50;88.60;;;;;;5034291;28;20052;-76
2021/09/26 00:17:36;;;;;;;10.25;7.78;;;15.40;88.70;;;;;;5035201;28;20037;-76
2021/09/26 00:20:05;;;;;;;11.80;8.60;;;15.30;88.80;;;;;;5034807;28;20050;-76
2021/09/26 00:22:32;;;;;;;10.38;8.27;;;15.30;89.00;;;;;;5034484;28;20057;-76
2021/09/26 00:25:01;;;;;;;11.18;8.32;;;15.20;89.20;;;;;;5034811;28;20331;-76
2021/09/26 00:27:28;;;;;;;10.32;8.63;;;15.20;89.40;;;;;;5033471;28;20205;-76
2021/09/26 00:30:09;;;;;;;12.15;8.20;;;15.10;89.50;;;;;;5034430;28;20064;-76
2021/09/26 00:32:37;;;;;;;11.40;8.50;;;15.10;89.60;;;;;;5039857;28;20199;-76
2021/09/26 00:35:05;;;;;;;13.60;8.93;;;15.10;89.80;;;;;;5052308;28;20353;-76
2021/09/26 00:37:32;;;;;;;11.73;9.25;;;15.10;89.90;;;;;;5052394;28;20041;-76
2021/09/26 00:40:00;;;;;;;11.23;8.32;;;15.10;90.00;;;;;;5052569;28;20041;-76
2021/09/26 00:42:27;;;;;;;12.95;9.07;;;15.10;90.10;;;;;;5049691;28;20049;-76
2021/09/26 00:44:55;;;;;;;11.73;8.90;;;15.20;90.10;;;;;;5030909;28;20376;-76
2021/09/26 00:47:22;;;;;;;13.60;8.70;;;15.20;90.20;;;;;;5032713;28;20050;-76
2021/09/26 00:49:50;;;;;;;11.23;9.30;;;15.20;90.20;;;;;;5033696;28;20069;-76
2021/09/26 00:52:19;;;;;;;13.15;8.88;;;15.30;90.30;;;;;;5032959;28;20394;-76
2021/09/26 00:54:47;;;;;;;13.85;9.07;;;15.20;90.40;;;;;;5033952;28;20060;-76
2021/09/26 00:57:15;;;;;;;11.43;8.60;;;15.30;90.50;;;;;;5033569;28;20053;-76
2021/09/26 00:59:42;;;;;;;16.00;9.43;;;15.30;90.50;;;;;;5033759;28;20064;-76
2021/09/26 01:02:10;;;;;;;12.27;9.15;;;15.20;90.50;;;;;;5033699;28;20068;-76
2021/09/26 01:04:38;;;;;;;14.63;9.02;;;15.10;90.70;;;;;;5032655;28;20045;-76
2021/09/26 01:07:13;;;;;;;11.90;9.45;;;15.10;90.80;;;;;;5032670;28;20049;-76
2021/09/26 01:10:02;;;;;;;15.00;9.57;;;15.00;91.00;;;;;;5032234;28;20522;-76
2021/09/26 01:12:52;;;;;;;14.02;9.60;;;15.00;91.10;;;;;;5032838;28;20044;-76
2021/09/26 01:15:48;;;;;;;11.48;8.88;;;15.00;91.20;;;;;;5033385;28;20052;-76
2021/09/26 01:18:23;;;;;;;13.20;9.45;;;15.00;91.30;;;;;;5031611;28;20049;-76
2021/09/26 01:21:07;;;;;;;15.60;10.07;;;15.00;91.20;;;;;;5031927;28;20057;-76
2021/09/26 01:23:52;;;;;;;12.45;9.27;;;15.10;91.30;;;;;;5031277;28;20049;-76
2021/09/26 01:26:44;;;;;;;14.15;9.32;;;15.00;91.30;;;;;;5031359;28;20065;-76
2021/09/26 01:29:30;;;;;;;14.35;9.90;;;15.10;91.40;;;;;;5031051;28;20057;-76
2021/09/26 01:32:08;;;;;;;15.57;9.30;;;15.10;91.40;;;;;;5031379;28;20048;-76
2021/09/26 01:34:55;;;;;;;14.43;9.38;;;15.10;91.30;;;;;;5029953;28;20060;-76
2021/09/26 01:37:38;;;;;;;14.95;9.93;;;15.10;91.30;;;;;;5031859;28;20045;-75
2021/09/26 01:40:21;;;;;;;16.13;9.70;;;15.10;91.30;;;;;;5033164;28;20038;-75
2021/09/26 01:42:53;;;;;;;14.60;10.55;;;15.20;91.30;;;;;;5015336;28;20054;-75
2021/09/26 01:45:34;;;;;;;14.30;10.00;;;15.10;91.30;;;;;;5031896;28;20052;-75
2021/09/26 01:48:13;;;;;;;13.30;10.35;;;15.10;91.40;;;;;;5032479;28;20050;-75
2021/09/26 01:50:42;;;;;;;17.42;10.57;;;15.10;91.40;;;;;;5032894;28;20053;-75
2021/09/26 01:53:12;;;;;;;16.50;9.88;;;15.00;91.50;;;;;;5032930;28;20399;-74
2021/09/26 01:55:42;;;;;;;15.30;9.98;;;15.00;91.60;;;;;;5032403;28;20061;-75
2021/09/26 01:58:10;;;;;;;11.45;8.57;;;14.90;91.70;;;;;;5032685;28;20049;-75
2021/09/26 02:00:41;;;;;;;13.35;9.52;;;14.80;91.80;;;;;;5014901;28;20041;-75
2021/09/26 02:03:10;;;;;;;20.55;11.80;;;14.80;92.00;;;;;;5032464;28;20056;-74
2021/09/26 02:05:41;;;;;;;17.23;11.18;;;14.80;92.00;;;;;;5032720;28;20053;-75
2021/09/26 02:08:10;;;;;;;16.50;11.00;;;14.70;92.20;;;;;;5032617;28;20060;-75
2021/09/26 02:10:39;;;;;;;17.15;10.55;;;14.70;92.30;;;;;;5032557;28;20045;-75
2021/09/26 02:13:07;;;;;;;18.30;10.93;;;14.70;92.40;;;;;;5032465;28;20056;-74
2021/09/26 02:15:35;;;;;;;16.05;10.50;;;14.60;92.50;;;;;;5032243;28;20053;-75
2021/09/26 02:18:04;;;;;;;12.90;10.07;;;14.60;92.50;;;;;;5032090;28;20053;-75
2021/09/26 02:20:36;;;;;;;14.07;10.60;;;14.60;92.60;;;;;;5032396;28;20053;-75
2021/09/26 02:23:04;;;;;;;16.13;10.88;;;14.70;92.60;;;;;;5032473;28;20049;-74
2021/09/26 02:25:33;;;;;;;15.88;10.25;;;14.70;92.60;;;;;;5032309;28;20510;-74
2021/09/26 02:28:01;;;;;;;16.42;11.60;;;14.70;92.70;;;;;;5032539;28;20372;-74
2021/09/26 02:30:29;;;;;;;15.10;10.23;;;14.70;92.60;;;;;;5032201;28;20041;-75
2021/09/26 02:32:56;;;;;;;15.15;11.18;;;14.80;92.70;;;;;;5030566;28;20052;-74
2021/09/26 02:35:24;;;;;;;14.13;11.25;;;14.90;92.70;;;;;;5032262;28;20402;-74
2021/09/26 02:37:52;;;;;;;17.83;10.95;;;15.00;92.60;;;;;;5030609;28;20414;-75
2021/09/26 02:40:20;;;;;;;15.73;10.40;;;15.10;92.70;;;;;;5032313;28;20041;-74
2021/09/26 02:42:59;;;;;;;13.48;9.95;;;15.20;92.70;;;;;;5032056;28;20116;-75
2021/09/26 02:45:41;;;;;;;15.23;10.40;;;15.30;92.70;;;;;;5032143;28;20061;-75
2021/09/26 02:48:19;;;;;;;14.55;10.05;;;15.40;92.60;;;;;;5031827;28;20054;-75
2021/09/26 02:50:51;;;;;;;17.80;10.40;;;15.50;92.50;;;;;;5032088;28;20049;-75
2021/09/26 02:53:19;;;;;;;17.02;9.65;;;15.60;92.40;;;;;;5031089;28;20046;-75
2021/09/26 02:55:48;;;;;;;14.57;10.23;;;15.70;92.40;;;;;;5032363;28;20053;-76
2021/09/26 02:58:16;;;;;;;12.45;9.45;;;15.70;92.30;;;;;;5032297;28;20476;-75
2021/09/26 03:00:46;;;;;;;12.68;9.25;;;15.80;92.30;;;;;;5030546;28;20045;-75
2021/09/26 03:03:17;;;;;;;12.77;9.13;;;15.80;92.20;;;;;;5032343;28;20050;-75
2021/09/26 03:05:46;;;;;;;12.27;9.45;;;15.80;92.20;;;;;;5029461;28;20053;-75
2021/09/26 03:08:15;;;;;;;13.52;10.27;;;15.90;92.30;;;;;;5030058;28;20051;-74
2021/09/26 03:10:44;;;;;;;13.15;9.25;;;15.90;92.20;;;;;;5029638;28;20060;-76
2021/09/26 03:13:12;;;;;;;14.88;9.40;;;16.00;92.20;;;;;;5030764;28;20412;-74
2021/09/26 03:15:40;;;;;;;11.07;9.65;;;16.10;92.10;;;;;;5033809;28;20052;-75
2021/09/26 03:18:08;;;;;;;11.68;8.90;;;16.10;91.90;;;;;;5033905;28;20064;-75
2021/09/26 03:20:35;;;;;;;12.82;9.05;;;16.10;91.90;;;;;;5033226;28;20057;-75
2021/09/26 03:23:03;;;;;;;11.57;8.98;;;16.10;91.80;;;;;;5035221;28;20052;-74
2021/09/26 03:25:31;;;;;;;12.77;9.10;;;16.10;91.80;;;;;;5035781;28;20068;-75
2021/09/26 03:27:58;;;;;;;11.27;8.57;;;16.10;91.70;;;;;;5035586;28;20046;-75
2021/09/26 03:30:26;;;;;;;11.18;8.65;;;16.10;91.70;;;;;;5034526;28;20049;-76
2021/09/26 03:32:54;;;;;;;13.52;8.93;;;16.10;91.70;;;;;;5035432;28;20065;-75
2021/09/26 03:35:21;;;;;;;10.50;8.43;;;16.10;91.70;;;;;;5036110;28;20053;-74
2021/09/26 03:37:51;;;;;;;13.63;8.85;;;16.00;91.80;;;;;;5033942;28;20053;-75
2021/09/26 03:40:18;;;;;;;14.55;8.63;;;16.00;91.80;;;;;;5035394;28;20045;-75
2021/09/26 03:42:46;;;;;;;12.45;8.20;;;16.00;91.80;;;;;;5035780;28;20403;-75
2021/09/26 03:45:13;;;;;;;11.73;7.55;;;15.90;91.80;;;;;;5035275;28;20057;-75
2021/09/26 03:47:41;;;;;;;11.02;8.30;;;15.90;91.80;;;;;;5035288;28;20487;-75
2021/09/26 03:50:10;;;;;;;10.30;8.00;;;15.80;91.70;;;;;;5035079;28;20495;-75
2021/09/26 03:52:38;;;;;;;11.18;7.88;;;15.80;91.70;;;;;;5017069;28;20052;-75
2021/09/26 03:55:08;;;;;;;11.80;7.82;;;15.80;91.70;;;;;;5034967;28;20064;-75
2021/09/26 03:57:35;;;;;;;13.27;8.13;;;15.80;91.70;;;;;;5034004;28;20053;-74
2021/09/26 04:00:08;;;;;;;11.95;8.38;;;15.70;91.70;;;;;;5034985;28;20056;-75
2021/09/26 04:02:38;;;;;;;13.07;8.60;;;15.70;91.60;;;;;;5034924;28;20045;-75
2021/09/26 04:05:07;;;;;;;13.13;8.40;;;15.70;91.60;;;;;;5035039;28;20060;-75
2021/09/26 04:07:35;;;;;;;10.45;8.35;;;15.60;91.70;;;;;;5034639;28;20057;-77
2021/09/26 04:10:06;;;;;;;16.70;9.07;;;15.50;91.70;;;;;;5033489;28;20657;-77
2021/09/26 04:12:33;;;;;;;14.50;9.90;;;15.50;91.80;;;;;;5033524;28;20049;-74
2021/09/26 04:15:01;;;;;;;17.13;9.70;;;15.40;91.90;;;;;;5034433;28;20482;-75
2021/09/26 04:17:29;;;;;;;17.92;10.20;;;15.30;92.00;;;;;;5034664;28;20487;-76
2021/09/26 04:19:56;;;;;;;19.00;10.55;;;15.30;92.10;;;;;;5034500;28;20530;-75
2021/09/26 04:22:24;;;;;;;15.50;10.35;;;15.30;92.20;;;;;;5034424;28;20053;-75
2021/09/26 04:24:52;;;;;;;13.65;9.15;;;15.30;92.30;;;;;;5033725;28;20053;-75
2021/09/26 04:27:19;;;;;;;18.75;10.63;;;15.30;92.20;;;;;;5034661;28;20053;-75
2021/09/26 04:29:47;;;;;;;14.90;9.95;;;15.40;92.20;;;;;;5034630;28;20049;-75
2021/09/26 04:32:15;;;;;;;17.10;11.05;;;15.40;92.10;;;;;;5033243;28;20450;-75
2021/09/26 04:34:43;;;;;;;15.10;10.13;;;15.40;92.00;;;;;;5034677;28;20411;-76
2021/09/26 04:37:10;;;;;;;19.67;10.60;;;15.60;91.90;;;;;;5034577;28;20060;-75
2021/09/26 04:39:38;;;;;;;15.07;9.77;;;15.60;91.80;;;;;;5034261;28;20499;-75
2021/09/26 04:42:08;;;;;;;18.40;11.25;;;15.60;91.60;;;;;;5034181;28;20068;-75
2021/09/26 04:44:36;;;;;;;18.58;11.38;;;15.70;91.50;;;;;;5033277;28;20045;-76
2021/09/26 04:47:04;;;;;;;17.77;10.85;;;15.70;91.40;;;;;;5034086;28;20053;-75
2021/09/26 04:49:31;;;;;;;19.35;11.77;;;15.80;91.30;;;;;;5034327;28;20061;-76
2021/09/26 04:52:00;;;;;;;17.98;11.15;;;15.80;91.20;;;;;;5033913;28;20049;-75
2021/09/26 04:54:28;;;;;;;21.45;11.55;;;15.80;91.00;;;;;;5034020;28;20491;-76
2021/09/26 04:56:56;;;;;;;18.83;12.07;;;15.80;90.90;;;;;;5048791;28;20061;-75
2021/09/26 04:59:24;;;;;;;18.52;12.45;;;15.80;90.90;;;;;;5016686;28;20095;-75
2021/09/26 05:01:52;;;;;;;22.30;12.85;;;15.80;90.80;;;;;;5034217;28;20049;-75
2021/09/26 05:04:20;;;;;;;20.27;12.65;;;15.80;90.80;;;;;;5033828;28;20050;-75
2021/09/26 05:06:47;;;;;;;22.77;13.00;;;15.80;90.80;;;;;;5033706;28;20475;-75
2021/09/26 05:09:15;;;;;;;21.92;12.45;;;15.70;90.80;;;;;;5033415;28;20053;-75
2021/09/26 05:11:42;;;;;;;20.75;13.25;;;15.70;90.80;;;;;;5033684;28;20204;-75
2021/09/26 05:14:10;;;;;;;23.20;13.95;;;15.70;90.80;;;;;;5033531;28;20418;-75
2021/09/26 05:16:38;;;;;;;23.55;14.07;;;15.70;90.80;;;;;;5033583;28;20054;-76
2021/09/26 05:19:05;;;;;;;22.65;13.00;;;15.70;90.80;;;;;;5033529;28;20052;-75
2021/09/26 05:21:33;;;;;;;21.38;13.60;;;15.70;90.80;;;;;;5033271;28;20045;-76
2021/09/26 05:24:00;;;;;;;18.45;12.20;;;15.80;90.70;;;;;;5033459;28;20512;-75
2021/09/26 05:29:45;;;;;;;21.00;12.80;;;15.60;90.60;;;;;;5182963;23;20288;-76
2021/09/26 05:32:13;;;;;;;20.15;12.63;;;15.60;90.60;;;;;;4919239;29;20051;-75
2021/09/26 05:34:41;;;;;;;19.88;12.35;;;15.60;90.60;;;;;;4916315;29;20059;-77
2021/09/26 05:37:08;;;;;;;18.20;12.55;;;15.50;90.50;;;;;;4916421;29;20060;-76
2021/09/26 05:39:36;;;;;;;20.85;13.13;;;15.40;90.30;;;;;;4916911;29;20044;-76
2021/09/26 05:42:06;;;;;;;20.33;12.07;;;15.40;90.30;;;;;;4915961;29;20048;-75
2021/09/26 05:44:35;;;;;;;17.73;12.73;;;15.30;90.00;;;;;;4899253;29;20063;-75
2021/09/26 05:52:38;;;;;;;21.08;14.10;;;14.90;89.90;;;;;;4915140;29;20055;-75
2021/09/26 05:55:06;;;;;;;19.58;13.40;;;14.80;89.90;;;;;;4916390;29;20052;-75
2021/09/26 05:57:33;;;;;;;19.77;14.80;;;14.70;89.80;;;;;;4916569;29;20052;-75
2021/09/26 06:00:03;;;;;;;21.98;15.85;;;14.60;89.80;;;;;;4900084;29;20047;-75
2021/09/26 06:05:37;;;;;;;28.55;18.33;;;14.30;90.00;;;;;;4995454;23;20056;-87
2021/09/26 06:08:05;;;;;;;27.17;18.38;;;14.20;90.20;;;;;;4936026;29;20397;-85
2021/09/26 06:10:33;;;;;;;30.52;19.73;;;14.10;90.40;;;;;;4918459;29;20066;-86
2021/09/26 06:13:00;;;;;;;30.67;18.92;;;14.10;90.50;;;;;;4936318;29;20048;-86
2021/09/26 06:15:30;;;;;;;27.55;17.95;;;14.10;90.60;;;;;;4936087;29;20047;-85
2021/09/26 06:17:58;;;;;;;31.88;18.75;;;14.20;90.60;;;;;;4919134;29;20044;-86
2021/09/26 06:20:25;;;;;;;31.95;19.95;;;14.20;90.60;;;;;;4935843;29;20044;-86
2021/09/26 06:22:53;;;;;;;31.67;19.83;;;14.20;90.60;;;;;;4935349;29;20058;-86
2021/09/26 06:25:21;;;;;;;31.60;19.27;;;14.20;90.60;;;;;;4919350;29;20065;-87
2021/09/26 06:27:48;;;;;;;34.05;20.70;;;14.20;90.50;;;;;;4936665;29;20363;-86
2021/09/26 06:30:16;;;;;;;40.85;19.90;;;14.20;90.40;;;;;;4936197;29;20047;-87
2021/09/26 06:32:43;;;;;;;28.35;18.63;;;14.20;90.40;;;;;;4935934;29;20095;-86
2021/09/26 06:35:11;;;;;;;30.90;19.80;;;14.20;90.50;;;;;;4919488;29;20047;-86
2021/09/26 06:37:38;;;;;;;31.58;19.80;;;14.20;90.50;;;;;;4935941;29;20548;-86
2021/09/26 06:40:07;;;;;;;25.58;16.00;;;14.10;90.50;;;;;;4935886;29;20048;-86
2021/09/26 06:42:35;;;;;;;28.50;17.73;;;14.10;90.40;;;;;;4935814;29;20043;-87
2021/09/26 06:45:05;;;;;;;23.45;16.73;;;14.20;90.30;;;;;;4918896;29;20055;-87
2021/09/26 06:47:33;;;;;;;23.15;16.10;;;14.20;90.10;;;;;;4928292;29;20047;-87
2021/09/26 06:50:01;;;;;;;23.52;15.35;;;14.30;89.70;;;;;;4939936;29;20508;-86
2021/09/26 06:52:28;;;;;;;22.42;15.25;;;14.20;89.50;;;;;;4946145;29;20051;-88
2021/09/26 06:54:56;;;;;;;22.88;15.52;;;14.30;89.30;;;;;;4957409;29;20046;-86
2021/09/26 06:57:24;;;;;;;26.17;15.48;;;14.30;89.20;;;;;;4952629;28;20066;-86
2021/09/26 06:59:51;;;;;;;24.10;16.60;;;14.30;89.10;;;;;;4926801;29;20386;-87
2021/09/26 07:02:21;;;;;;;21.45;15.07;;;14.30;88.80;;;;;;4942287;29;20047;-88
2021/09/26 07:04:50;;;;;;;22.92;16.20;;;14.30;88.80;;;;;;4925567;29;20099;-87
2021/09/26 07:07:19;;;;;;;27.17;15.98;;;14.30;88.60;;;;;;4956132;29;20055;-87
2021/09/26 07:09:49;;;;;;;22.40;15.95;;;14.30;88.50;;;;;;4941190;29;20055;-90
2021/09/26 07:12:17;;;;;;;25.63;15.35;;;14.30;88.50;;;;;;4940693;29;20058;-86
2021/09/26 07:14:46;;;;;;;23.65;15.82;;;14.40;88.40;;;;;;4949900;29;20043;-87
2021/09/26 07:17:13;;;;;;;23.90;15.48;;;14.40;88.20;;;;;;4945165;29;20043;-88
2021/09/26 07:19:41;;;;;;;23.23;16.10;;;14.50;88.10;;;;;;4949267;29;20477;-87
2021/09/26 07:22:09;;;;;;;22.30;16.60;;;14.50;87.90;;;;;;4931132;29;20072;-87
2021/09/26 07:24:36;;;;;;;24.83;16.88;;;14.50;87.90;;;;;;4924647;29;20054;-88
2021/09/26 07:27:08;;;;;;;22.60;16.48;;;14.60;87.80;;;;;;4940416;29;20062;-88
2021/09/26 07:29:36;;;;;;;24.35;16.45;;;14.50;87.70;;;;;;4924393;29;20048;-89
2021/09/26 07:32:04;;;;;;;23.00;16.65;;;14.50;87.70;;;;;;4941904;29;20067;-87
2021/09/26 07:34:32;;;;;;;22.15;15.85;;;14.40;87.80;;;;;;4942066;29;20062;-87
2021/09/26 07:36:59;;;;;;;19.95;15.85;;;14.40;87.90;;;;;;4924757;29;20063;-87
2021/09/26 07:39:27;;;;;;;23.80;16.30;;;14.40;87.80;;;;;;4941273;29;20405;-87
2021/09/26 07:41:57;;;;;;;25.10;17.15;;;14.40;87.60;;;;;;4942023;29;20055;-88
2021/09/26 07:44:24;;;;;;;20.23;15.23;;;14.30;87.60;;;;;;4940011;29;20506;-88
2021/09/26 07:46:52;;;;;;;22.58;15.18;;;14.40;87.60;;;;;;4941315;29;20059;-88
2021/09/26 07:49:20;;;;;;;20.50;15.18;;;14.50;87.40;;;;;;4941301;29;20052;-89
2021/09/26 07:51:48;;;;;;;22.98;15.40;;;14.60;87.20;;;;;;4941078;29;20059;-89
2021/09/26 07:54:16;;;;;;;23.60;15.60;;;14.70;86.80;;;;;;4925771;29;20063;-88
2021/09/26 07:56:45;;;;;;;22.25;15.38;;;14.70;86.60;;;;;;4942208;29;20104;-92
2021/09/26 07:59:12;;;;;;;20.58;14.63;;;14.70;86.60;;;;;;4927204;29;20059;-91
2021/09/26 08:01:40;;;;;;;24.55;15.05;;;14.60;86.70;;;;;;4925483;29;20058;-91
2021/09/26 08:04:08;;;;;;;21.10;15.63;;;14.50;86.70;;;;;;4954768;29;20058;-91
2021/09/26 08:06:36;;;;;;;19.33;14.60;;;14.50;86.60;;;;;;4958876;29;20110;-92
2021/09/26 08:09:04;;;;;;;19.17;14.05;;;14.40;86.70;;;;;;4960997;28;20112;-91
2021/09/26 08:11:31;;;;;;;22.20;15.90;;;14.40;86.70;;;;;;4959960;29;20039;-91
2021/09/26 08:14:00;;;;;;;21.63;15.18;;;14.40;86.80;;;;;;4947986;29;20052;-90
2021/09/26 08:16:28;;;;;;;20.33;15.18;;;14.30;86.80;;;;;;4943928;29;20058;-92
2021/09/26 08:18:56;;;;;;;21.88;15.50;;;14.30;86.80;;;;;;4942208;29;20389;-91
2021/09/26 08:21:23;;;;;;;22.05;15.82;;;14.40;86.80;;;;;;4940766;29;20052;-93
2021/09/26 08:23:51;;;;;;;20.95;14.65;;;14.50;86.80;;;;;;4941597;29;20374;-93
2021/09/26 08:26:19;;;;;;;19.95;14.82;;;14.60;86.70;;;;;;4929219;29;20103;-92
2021/09/26 08:28:47;;;;;;;19.88;14.40;;;14.80;86.30;;;;;;4924574;29;20412;-91
2021/09/26 08:31:14;;;;;;;21.00;15.82;;;14.80;85.90;;;;;;4924605;29;20055;-93
2021/09/26 08:33:42;;;;;;;20.02;14.80;;;14.90;85.50;;;;;;4942296;29;20051;-91
2021/09/26 08:36:10;;;;;;;21.42;15.05;;;15.00;85.50;;;;;;4941886;29;20056;-92
2021/09/26 08:38:37;;;;;;;19.65;14.65;;;15.00;85.50;;;;;;4940405;29;20059;-92
2021/09/26 08:41:05;;;;;;;20.23;14.52;;;15.00;85.30;;;;;;4941659;29;20051;-92
2021/09/26 08:43:34;;;;;;;23.15;16.02;;;15.00;85.20;;;;;;4941217;29;20052;-92
2021/09/26 08:46:03;;;;;;;20.67;14.48;;;15.00;85.20;;;;;;4922854;29;20043;-87
2021/09/26 08:48:31;;;;;;;19.30;14.35;;;15.00;85.40;;;;;;4941293;29;20056;-89
2021/09/26 08:50:59;;;;;;;19.20;14.10;;;15.00;85.40;;;;;;4940800;29;20043;-90
2021/09/26 08:53:27;;;;;;;19.38;14.45;;;15.20;85.30;;;;;;4939756;29;20056;-89
2021/09/26 08:55:57;;;;;;;19.30;13.65;;;15.30;85.00;;;;;;4941143;29;20121;-87
2021/09/26 08:58:24;;;;;;;20.17;14.35;;;15.50;84.60;;;;;;4924261;29;20059;-91
2021/09/26 09:00:53;;;;;;;17.20;13.25;;;15.70;83.80;;;;;;4940012;29;20401;-91
2021/09/26 09:03:21;;;;;;;19.15;13.95;;;15.80;83.60;;;;;;4939730;29;20052;-91
2021/09/26 09:05:53;;;;;;;18.05;13.90;;;15.80;83.00;;;;;;4922504;29;20063;-91
2021/09/26 09:08:24;;;;;;;18.83;13.45;;;15.80;83.10;;;;;;4922024;29;20059;-93
2021/09/26 09:11:01;;;;;;;14.95;13.05;;;15.80;83.10;;;;;;4938155;29;20052;-93
2021/09/26 09:13:31;;;;;;;16.52;13.30;;;15.90;82.60;;;;;;4923619;29;20062;-91
2021/09/26 09:16:11;;;;;;;16.25;12.63;;;16.00;82.70;;;;;;4922310;29;20060;-92
2021/09/26 09:18:46;;;;;;;12.75;11.00;;;16.00;82.40;;;;;;4940303;29;20067;-93
2021/09/26 09:21:34;;;;;;;15.68;11.20;;;16.10;81.80;;;;;;4942292;29;20051;-91
2021/09/26 09:24:25;;;;;;;16.00;10.40;;;16.30;81.20;;;;;;4939947;29;20401;-89
2021/09/26 09:26:55;;;;;;;12.57;10.15;;;16.40;80.10;;;;;;4939834;29;20047;-90
2021/09/26 09:29:24;;;;;;;14.93;10.65;;;16.60;80.10;;;;;;4941692;29;20059;-91
2021/09/26 09:31:57;;;;;;;12.23;9.52;;;16.80;79.30;;;;;;4940589;29;20055;-91
2021/09/26 09:34:36;;;;;;;14.38;11.05;;;17.00;78.30;;;;;;4924532;29;20066;-91
2021/09/26 09:37:23;;;;;;;11.15;9.07;;;17.10;77.70;;;;;;4922858;29;20048;-90
2021/09/26 09:40:06;;;;;;;10.25;9.25;;;17.20;75.90;;;;;;4922628;29;20055;-90
2021/09/26 09:42:52;;;;;;;10.40;8.27;;;17.20;75.90;;;;;;4940374;29;20097;-91
2021/09/26 09:45:35;;;;;;;11.80;8.88;;;17.20;74.80;;;;;;4926580;29;20066;-91
2021/09/26 09:48:14;;;;;;;13.23;9.60;;;17.20;75.10;;;;;;4949270;29;20052;-90
2021/09/26 09:50:59;;;;;;;13.00;9.27;;;17.20;75.20;;;;;;4926293;29;20044;-89
2021/09/26 09:53:41;;;;;;;10.52;8.00;;;17.30;74.90;;;;;;4947975;29;20054;-91
2021/09/26 09:56:08;;;;;;;8.13;7.20;;;17.40;74.60;;;;;;4943273;29;20488;-91
2021/09/26 09:58:45;;;;;;;8.30;7.50;;;17.40;72.70;;;;;;4941260;29;20060;-90
2021/09/26 10:01:40;;;;;;;8.23;7.40;;;17.40;72.30;;;;;;4940088;29;20528;-92
2021/09/26 10:04:12;;;;;;;8.70;7.43;;;17.40;72.50;;;;;;4921021;29;20067;-90
2021/09/26 10:06:47;;;;;;;11.30;7.68;;;17.40;72.00;;;;;;4940886;29;20063;-90
2021/09/26 10:09:15;;;;;;;9.77;7.10;;;17.30;72.10;;;;;;4942018;29;20397;-91
2021/09/26 10:12:04;;;;;;;8.05;6.82;;;17.30;72.20;;;;;;4940241;29;20055;-91
2021/09/26 10:14:35;;;;;;;7.50;6.43;;;17.30;72.30;;;;;;4924550;29;20113;-91
2021/09/26 10:17:05;;;;;;;9.13;6.35;;;17.40;72.50;;;;;;4940710;29;20051;-90
2021/09/26 10:19:35;;;;;;;6.70;6.03;;;17.50;71.90;;;;;;4941226;29;20359;-86
2021/09/26 10:22:04;;;;;;;8.48;5.72;;;17.60;70.60;;;;;;4904688;29;20052;-88
2021/09/26 10:24:37;;;;;;;6.18;5.57;;;17.70;69.80;;;;;;4943041;29;20047;-88
2021/09/26 10:27:07;;;;;;;7.28;6.05;;;17.70;69.80;;;;;;4939027;29;20052;-89
2021/09/26 10:29:36;;;;;;;7.95;6.38;;;17.80;70.50;;;;;;4923321;29;20043;-88
2021/09/26 10:32:07;;;;;;;6.22;5.28;;;17.80;69.90;;;;;;4907603;29;20059;-88
2021/09/26 10:34:37;;;;;;;7.88;5.85;;;17.90;70.30;;;;;;4922197;29;20048;-89
2021/09/26 10:37:09;;;;;;;7.25;5.25;;;18.00;69.80;;;;;;4922169;29;20047;-88
2021/09/26 10:39:38;;;;;;;7.65;5.85;;;18.20;69.50;;;;;;4932545;29;20075;-89
2021/09/26 10:42:12;;;;;;;5.95;5.03;;;18.20;69.30;;;;;;4932289;29;20056;-87
2021/09/26 10:44:48;;;;;;;4.88;4.38;;;18.30;68.80;;;;;;4948257;29;20066;-89
2021/09/26 10:47:19;;;;;;;6.50;4.70;;;18.50;68.30;;;;;;4949931;29;20043;-89
2021/09/26 10:49:48;;;;;;;5.07;4.57;;;18.60;67.80;;;;;;4941091;29;20123;-89
2021/09/26 10:52:29;;;;;;;6.45;5.15;;;18.70;67.70;;;;;;4937953;29;20066;-87
2021/09/26 10:55:16;;;;;;;4.95;4.40;;;18.80;67.20;;;;;;4932357;29;20052;-88
2021/09/26 10:57:46;;;;;;;4.40;4.00;;;18.90;67.00;;;;;;4949161;29;20044;-89
2021/09/26 11:00:16;;;;;;;4.00;3.70;;;19.00;67.20;;;;;;4932018;29;20138;-88
2021/09/26 11:02:45;;;;;;;5.47;3.70;;;19.30;66.40;;;;;;4949148;29;20052;-89
2021/09/26 11:05:41;;;;;;;4.18;3.78;;;19.40;65.40;;;;;;4914684;29;20409;-89
2021/09/26 11:08:12;;;;;;;4.72;3.60;;;19.30;65.00;;;;;;4938230;29;20063;-88
2021/09/26 11:10:49;;;;;;;5.82;3.28;;;19.30;65.80;;;;;;4940461;29;20072;-88
2021/09/26 11:13:31;;;;;;;4.20;3.40;;;19.70;66.20;;;;;;4947696;29;20056;-88
2021/09/26 11:15:58;;;;;;;4.80;2.88;;;19.90;64.00;;;;;;4936046;29;20054;-88
2021/09/26 11:19:03;;;;;;;4.45;3.50;;;19.90;63.90;;;;;;4937923;29;20052;-88
2021/09/26 11:21:39;;;;;;;3.28;2.97;;;20.00;63.80;;;;;;4944498;29;20060;-88
2021/09/26 11:24:31;;;;;;;3.75;2.85;;;20.20;63.00;;;;;;4938741;29;20423;-88
2021/09/26 11:27:01;;;;;;;3.25;2.85;;;20.30;62.20;;;;;;4939368;29;20403;-89
2021/09/26 11:29:51;;;;;;;3.22;2.90;;;20.30;61.60;;;;;;4938453;29;20055;-88
2021/09/26 11:32:19;;;;;;;6.07;2.63;;;20.00;62.00;;;;;;4938704;29;20066;-87
2021/09/26 11:34:51;;;;;;;3.70;2.95;;;19.80;62.80;;;;;;4941107;29;20481;-87
2021/09/26 11:37:38;;;;;;;2.95;2.58;;;19.80;63.10;;;;;;4941671;29;20505;-89
2021/09/26 11:40:18;;;;;;;2.72;2.53;;;19.70;63.20;;;;;;4942405;29;20051;-89
2021/09/26 11:42:54;;;;;;;2.65;2.45;;;19.70;64.00;;;;;;4941795;29;20051;-89
2021/09/26 11:45:32;;;;;;;6.32;2.95;;;19.70;64.10;;;;;;4941454;29;20064;-86
2021/09/26 11:48:01;;;;;;;2.83;2.50;;;19.70;64.00;;;;;;4940181;29;20397;-87
2021/09/26 11:50:31;;;;;;;3.72;2.60;;;19.60;64.50;;;;;;4941355;29;20052;-88
2021/09/26 11:52:59;;;;;;;5.03;2.40;;;19.50;64.90;;;;;;4940926;29;20048;-88
2021/09/26 11:55:39;;;;;;;5.68;2.88;;;19.50;65.40;;;;;;4923627;29;20422;-87
2021/09/26 11:58:08;;;;;;;5.90;3.05;;;19.40;65.70;;;;;;4940976;29;20072;-88
2021/09/26 12:00:38;;;;;;;2.63;2.30;;;19.40;65.10;;;;;;4940669;29;20048;-88
2021/09/26 12:03:13;;;;;;;2.63;2.42;;;19.30;65.60;;;;;;4939285;29;20058;-88
2021/09/26 12:05:42;;;;;;;2.63;2.17;;;19.40;65.70;;;;;;4939187;29;20060;-87
2021/09/26 12:08:13;;;;;;;2.45;2.00;;;19.60;65.90;;;;;;4940508;29;20052;-87
2021/09/26 12:10:41;;;;;;;3.63;1.70;;;19.70;65.60;;;;;;4939919;29;20074;-88
2021/09/26 12:13:20;;;;;;;2.22;1.50;;;19.80;64.30;;;;;;4906362;29;20043;-88
2021/09/26 12:15:49;;;;;;;2.53;1.95;;;19.80;64.40;;;;;;4921949;29;20052;-88
2021/09/26 12:18:19;;;;;;;4.07;2.30;;;19.60;65.10;;;;;;4941894;29;20043;-88
2021/09/26 12:20:48;;;;;;;6.90;2.30;;;19.70;64.90;;;;;;4939146;29;20051;-89
2021/09/26 12:23:21;;;;;;;4.00;2.10;;;19.70;65.10;;;;;;4940089;29;20056;-89
2021/09/26 12:25:59;;;;;;;;;;;19.70;64.80;;;;;;4940237;29;20469;-88
2021/09/26 12:28:27;;;;;;;3.38;3.08;;;19.70;65.20;;;;;;4940067;29;19922;-89
2021/09/26 12:30:58;;;;;;;3.08;2.20;;;19.80;65.10;;;;;;4939536;29;20048;-89
2021/09/26 12:33:33;;;;;;;2.95;2.55;;;20.00;64.00;;;;;;4937780;29;20484;-91
2021/09/26 12:36:05;;;;;;;3.05;2.47;;;20.10;63.60;;;;;;4922086;29;20141;-87
2021/09/26 12:38:36;;;;;;;3.83;2.80;;;20.20;63.60;;;;;;4939629;29;20419;-88
2021/09/26 12:41:31;;;;;;;4.40;2.75;;;20.10;63.80;;;;;;4938180;29;20074;-89
2021/09/26 12:44:03;;;;;;;2.53;2.28;;;20.10;64.00;;;;;;4937099;29;20052;-87
2021/09/26 12:46:37;;;;;;;2.80;2.20;;;20.10;63.70;;;;;;4938350;29;20052;-88
2021/09/26 12:49:14;;;;;;;3.50;2.10;;;20.00;63.60;;;;;;4923982;29;20059;-89
2021/09/26 12:52:03;;;;;;;4.88;2.50;;;20.00;63.90;;;;;;4939194;29;20058;-90
2021/09/26 12:54:34;;;;;;;3.28;1.67;;;19.90;63.90;;;;;;4921637;29;20469;-86
2021/09/26 12:57:09;;;;;;;3.58;2.60;;;20.00;63.50;;;;;;4939986;29;20048;-87
2021/09/26 12:59:44;;;;;;;1.52;1.25;;;20.20;63.60;;;;;;4938867;29;20048;-87
2021/09/26 13:02:17;;;;;;;1.30;1.20;;;20.40;62.60;;;;;;4938562;29;20052;-87
2021/09/26 13:05:04;;;;;;;1.33;1.20;;;20.40;61.70;;;;;;4920906;29;20520;-89
2021/09/26 13:07:33;;;;;;;1.55;1.40;;;20.40;61.00;;;;;;4938450;29;20059;-88